sensor_id;sensor_type;location;lat;lon;timestamp;P1;durP1;ratioP1;P2;durP2;ratioP2
58101;SDS011;52034;51.926;6.320;2023-05-07T00:00:57;18.47;;;16.57;;
58101;SDS011;52034;51.926;6.320;2023-05-07T00:01:59;17.13;;;15.55;;
58101;SDS011;52034;51.926;6.320;2023-05-07T00:02:59;17.33;;;15.60;;
58101;SDS011;52034;51.926;6.320;2023-05-07T00:04:01;17.33;;;15.63;;
58101;SDS011;52034;51.926;6.320;2023-05-07T00:05:02;17.27;;;15.68;;
58101;SDS011;52034;51.926;6.320;2023-05-07T00:06:03;17.90;;;16.00;;
58101;SDS011;52034;51.926;6.320;2023-05-07T00:07:03;17.27;;;15.67;;
58101;SDS011;52034;51.926;6.320;2023-05-07T00:08:04;17.98;;;16.10;;
58101;SDS011;52034;51.926;6.320;2023-05-07T00:09:05;16.83;;;15.33;;
58101;SDS011;52034;51.926;6.320;2023-05-07T00:10:06;18.33;;;16.65;;
58101;SDS011;52034;51.926;6.320;2023-05-07T00:11:07;18.60;;;16.70;;
58101;SDS011;52034;51.926;6.320;2023-05-07T00:12:07;18.87;;;16.47;;
58101;SDS011;52034;51.926;6.320;2023-05-07T00:13:08;18.73;;;16.73;;
58101;SDS011;52034;51.926;6.320;2023-05-07T00:14:08;19.77;;;17.83;;
58101;SDS011;52034;51.926;6.320;2023-05-07T00:15:08;18.03;;;16.13;;
58101;SDS011;52034;51.926;6.320;2023-05-07T00:16:09;17.73;;;16.07;;
58101;SDS011;52034;51.926;6.320;2023-05-07T00:17:09;17.43;;;15.73;;
58101;SDS011;52034;51.926;6.320;2023-05-07T00:18:10;17.03;;;15.40;;
58101;SDS011;52034;51.926;6.320;2023-05-07T00:19:10;18.40;;;16.53;;
58101;SDS011;52034;51.926;6.320;2023-05-07T00:20:10;18.13;;;16.07;;
58101;SDS011;52034;51.926;6.320;2023-05-07T00:21:11;17.60;;;15.77;;
58101;SDS011;52034;51.926;6.320;2023-05-07T00:22:12;18.43;;;16.70;;
58101;SDS011;52034;51.926;6.320;2023-05-07T00:23:12;19.60;;;17.67;;
58101;SDS011;52034;51.926;6.320;2023-05-07T00:24:12;19.20;;;17.17;;
58101;SDS011;52034;51.926;6.320;2023-05-07T00:25:13;18.87;;;16.93;;
58101;SDS011;52034;51.926;6.320;2023-05-07T00:26:13;18.57;;;16.27;;
58101;SDS011;52034;51.926;6.320;2023-05-07T00:27:14;17.05;;;15.52;;
58101;SDS011;52034;51.926;6.320;2023-05-07T00:28:15;17.63;;;15.83;;
58101;SDS011;52034;51.926;6.320;2023-05-07T00:29:15;16.70;;;15.00;;
58101;SDS011;52034;51.926;6.320;2023-05-07T00:30:15;17.27;;;15.60;;
58101;SDS011;52034;51.926;6.320;2023-05-07T00:31:16;17.13;;;15.37;;
58101;SDS011;52034;51.926;6.320;2023-05-07T00:32:16;19.13;;;17.07;;
58101;SDS011;52034;51.926;6.320;2023-05-07T00:33:16;17.10;;;15.43;;
58101;SDS011;52034;51.926;6.320;2023-05-07T00:34:17;17.20;;;15.70;;
58101;SDS011;52034;51.926;6.320;2023-05-07T00:35:17;17.47;;;15.77;;
58101;SDS011;52034;51.926;6.320;2023-05-07T00:36:17;18.20;;;16.37;;
58101;SDS011;52034;51.926;6.320;2023-05-07T00:37:18;19.17;;;17.43;;
58101;SDS011;52034;51.926;6.320;2023-05-07T00:38:18;17.30;;;15.70;;
58101;SDS011;52034;51.926;6.320;2023-05-07T00:39:18;17.23;;;15.53;;
58101;SDS011;52034;51.926;6.320;2023-05-07T00:40:19;17.50;;;15.77;;
58101;SDS011;52034;51.926;6.320;2023-05-07T00:41:19;17.27;;;15.77;;
58101;SDS011;52034;51.926;6.320;2023-05-07T00:42:20;19.23;;;17.27;;
58101;SDS011;52034;51.926;6.320;2023-05-07T00:43:20;17.80;;;16.07;;
58101;SDS011;52034;51.926;6.320;2023-05-07T00:44:21;17.60;;;15.83;;
58101;SDS011;52034;51.926;6.320;2023-05-07T00:45:21;18.07;;;16.27;;
58101;SDS011;52034;51.926;6.320;2023-05-07T00:46:21;17.77;;;15.93;;
58101;SDS011;52034;51.926;6.320;2023-05-07T00:47:22;18.10;;;16.40;;
58101;SDS011;52034;51.926;6.320;2023-05-07T00:48:23;18.20;;;16.40;;
58101;SDS011;52034;51.926;6.320;2023-05-07T00:49:26;17.58;;;15.82;;
58101;SDS011;52034;51.926;6.320;2023-05-07T00:50:51;17.30;;;15.68;;
58101;SDS011;52034;51.926;6.320;2023-05-07T00:51:52;18.60;;;16.80;;
58101;SDS011;52034;51.926;6.320;2023-05-07T00:52:53;19.03;;;17.03;;
58101;SDS011;52034;51.926;6.320;2023-05-07T00:53:53;18.45;;;16.70;;
58101;SDS011;52034;51.926;6.320;2023-05-07T00:54:54;17.27;;;15.50;;
58101;SDS011;52034;51.926;6.320;2023-05-07T00:55:55;18.75;;;16.90;;
58101;SDS011;52034;51.926;6.320;2023-05-07T00:56:55;19.07;;;17.30;;
58101;SDS011;52034;51.926;6.320;2023-05-07T00:57:56;19.10;;;17.40;;
58101;SDS011;52034;51.926;6.320;2023-05-07T00:58:56;19.87;;;17.77;;
58101;SDS011;52034;51.926;6.320;2023-05-07T00:59:56;18.63;;;16.93;;
58101;SDS011;52034;51.926;6.320;2023-05-07T01:00:57;19.13;;;17.33;;
58101;SDS011;52034;51.926;6.320;2023-05-07T01:01:58;19.52;;;17.65;;
58101;SDS011;52034;51.926;6.320;2023-05-07T01:02:59;19.58;;;17.65;;
58101;SDS011;52034;51.926;6.320;2023-05-07T01:03:59;19.90;;;17.80;;
58101;SDS011;52034;51.926;6.320;2023-05-07T01:05:00;20.30;;;18.33;;
58101;SDS011;52034;51.926;6.320;2023-05-07T01:06:01;19.42;;;17.52;;
58101;SDS011;52034;51.926;6.320;2023-05-07T01:08:03;20.15;;;18.13;;
58101;SDS011;52034;51.926;6.320;2023-05-07T01:09:05;20.70;;;18.52;;
58101;SDS011;52034;51.926;6.320;2023-05-07T01:10:05;18.97;;;17.27;;
58101;SDS011;52034;51.926;6.320;2023-05-07T01:11:07;20.60;;;18.52;;
58101;SDS011;52034;51.926;6.320;2023-05-07T01:12:08;19.00;;;17.20;;
58101;SDS011;52034;51.926;6.320;2023-05-07T01:13:09;19.67;;;17.77;;
58101;SDS011;52034;51.926;6.320;2023-05-07T01:14:11;19.80;;;17.83;;
58101;SDS011;52034;51.926;6.320;2023-05-07T01:15:11;20.33;;;18.43;;
58101;SDS011;52034;51.926;6.320;2023-05-07T01:16:12;20.37;;;18.37;;
58101;SDS011;52034;51.926;6.320;2023-05-07T01:17:12;18.97;;;17.30;;
58101;SDS011;52034;51.926;6.320;2023-05-07T01:18:13;20.20;;;18.23;;
58101;SDS011;52034;51.926;6.320;2023-05-07T01:19:14;19.37;;;17.57;;
58101;SDS011;52034;51.926;6.320;2023-05-07T01:20:18;19.92;;;17.85;;
58101;SDS011;52034;51.926;6.320;2023-05-07T01:21:20;20.33;;;18.25;;
58101;SDS011;52034;51.926;6.320;2023-05-07T01:22:32;20.45;;;18.45;;
58101;SDS011;52034;51.926;6.320;2023-05-07T01:23:33;20.30;;;18.27;;
58101;SDS011;52034;51.926;6.320;2023-05-07T01:24:36;20.80;;;18.15;;
58101;SDS011;52034;51.926;6.320;2023-05-07T01:25:37;19.23;;;17.42;;
58101;SDS011;52034;51.926;6.320;2023-05-07T01:26:38;19.30;;;17.40;;
58101;SDS011;52034;51.926;6.320;2023-05-07T01:27:38;20.60;;;18.45;;
58101;SDS011;52034;51.926;6.320;2023-05-07T01:28:39;19.67;;;17.57;;
58101;SDS011;52034;51.926;6.320;2023-05-07T01:29:40;19.97;;;18.10;;
58101;SDS011;52034;51.926;6.320;2023-05-07T01:30:40;20.13;;;18.33;;
58101;SDS011;52034;51.926;6.320;2023-05-07T01:31:44;20.13;;;17.95;;
58101;SDS011;52034;51.926;6.320;2023-05-07T01:32:47;19.77;;;17.77;;
58101;SDS011;52034;51.926;6.320;2023-05-07T01:33:51;20.65;;;18.50;;
58101;SDS011;52034;51.926;6.320;2023-05-07T01:34:53;21.17;;;19.33;;
58101;SDS011;52034;51.926;6.320;2023-05-07T01:35:55;22.15;;;19.85;;
58101;SDS011;52034;51.926;6.320;2023-05-07T01:36:57;20.65;;;18.60;;
58101;SDS011;52034;51.926;6.320;2023-05-07T01:38:00;22.25;;;19.90;;
58101;SDS011;52034;51.926;6.320;2023-05-07T01:40:02;20.27;;;18.38;;
58101;SDS011;52034;51.926;6.320;2023-05-07T01:41:03;21.45;;;19.23;;
58101;SDS011;52034;51.926;6.320;2023-05-07T01:42:04;21.30;;;19.20;;
58101;SDS011;52034;51.926;6.320;2023-05-07T01:43:04;23.17;;;20.73;;
58101;SDS011;52034;51.926;6.320;2023-05-07T01:44:07;22.48;;;18.30;;
58101;SDS011;52034;51.926;6.320;2023-05-07T01:45:10;20.10;;;18.15;;
58101;SDS011;52034;51.926;6.320;2023-05-07T01:46:11;21.08;;;19.05;;
58101;SDS011;52034;51.926;6.320;2023-05-07T01:47:12;21.98;;;19.77;;
58101;SDS011;52034;51.926;6.320;2023-05-07T01:48:14;20.55;;;18.45;;
58101;SDS011;52034;51.926;6.320;2023-05-07T01:49:15;21.55;;;19.52;;
58101;SDS011;52034;51.926;6.320;2023-05-07T01:50:16;23.15;;;20.13;;
58101;SDS011;52034;51.926;6.320;2023-05-07T01:51:19;24.42;;;20.23;;
58101;SDS011;52034;51.926;6.320;2023-05-07T01:52:21;21.63;;;19.27;;
58101;SDS011;52034;51.926;6.320;2023-05-07T01:53:21;21.53;;;19.43;;
58101;SDS011;52034;51.926;6.320;2023-05-07T01:54:27;22.13;;;19.83;;
58101;SDS011;52034;51.926;6.320;2023-05-07T01:55:28;21.65;;;19.52;;
58101;SDS011;52034;51.926;6.320;2023-05-07T01:56:29;22.30;;;20.17;;
58101;SDS011;52034;51.926;6.320;2023-05-07T01:57:29;22.27;;;20.07;;
58101;SDS011;52034;51.926;6.320;2023-05-07T01:58:30;23.50;;;21.10;;
58101;SDS011;52034;51.926;6.320;2023-05-07T01:59:30;22.63;;;20.40;;
58101;SDS011;52034;51.926;6.320;2023-05-07T02:00:31;22.47;;;20.33;;
58101;SDS011;52034;51.926;6.320;2023-05-07T02:01:31;23.90;;;21.60;;
58101;SDS011;52034;51.926;6.320;2023-05-07T02:02:32;23.57;;;21.27;;
58101;SDS011;52034;51.926;6.320;2023-05-07T02:03:33;23.80;;;21.17;;
58101;SDS011;52034;51.926;6.320;2023-05-07T02:04:41;25.55;;;22.50;;
58101;SDS011;52034;51.926;6.320;2023-05-07T02:05:42;23.40;;;20.97;;
58101;SDS011;52034;51.926;6.320;2023-05-07T02:07:00;22.02;;;19.70;;
58101;SDS011;52034;51.926;6.320;2023-05-07T02:08:01;20.97;;;18.93;;
58101;SDS011;52034;51.926;6.320;2023-05-07T02:09:03;22.30;;;20.20;;
58101;SDS011;52034;51.926;6.320;2023-05-07T02:10:04;20.67;;;18.50;;
58101;SDS011;52034;51.926;6.320;2023-05-07T02:11:05;21.42;;;19.33;;
58101;SDS011;52034;51.926;6.320;2023-05-07T02:12:05;20.00;;;17.97;;
58101;SDS011;52034;51.926;6.320;2023-05-07T02:13:06;21.70;;;19.40;;
58101;SDS011;52034;51.926;6.320;2023-05-07T02:14:06;23.37;;;20.97;;
58101;SDS011;52034;51.926;6.320;2023-05-07T02:15:07;22.93;;;20.73;;
58101;SDS011;52034;51.926;6.320;2023-05-07T02:16:08;23.90;;;21.45;;
58101;SDS011;52034;51.926;6.320;2023-05-07T02:17:09;26.63;;;21.80;;
58101;SDS011;52034;51.926;6.320;2023-05-07T02:18:09;23.90;;;21.40;;
58101;SDS011;52034;51.926;6.320;2023-05-07T02:19:09;21.13;;;19.13;;
58101;SDS011;52034;51.926;6.320;2023-05-07T02:20:10;23.33;;;20.97;;
58101;SDS011;52034;51.926;6.320;2023-05-07T02:21:14;23.42;;;21.13;;
58101;SDS011;52034;51.926;6.320;2023-05-07T02:22:14;22.80;;;20.37;;
58101;SDS011;52034;51.926;6.320;2023-05-07T02:23:15;22.75;;;20.55;;
58101;SDS011;52034;51.926;6.320;2023-05-07T02:24:15;23.50;;;21.30;;
58101;SDS011;52034;51.926;6.320;2023-05-07T02:25:16;23.03;;;20.83;;
58101;SDS011;52034;51.926;6.320;2023-05-07T02:26:16;23.03;;;20.80;;
58101;SDS011;52034;51.926;6.320;2023-05-07T02:27:17;24.58;;;22.15;;
58101;SDS011;52034;51.926;6.320;2023-05-07T02:28:18;22.33;;;20.08;;
58101;SDS011;52034;51.926;6.320;2023-05-07T02:29:29;23.75;;;21.45;;
58101;SDS011;52034;51.926;6.320;2023-05-07T02:30:30;22.37;;;20.40;;
58101;SDS011;52034;51.926;6.320;2023-05-07T02:31:32;21.75;;;19.55;;
58101;SDS011;52034;51.926;6.320;2023-05-07T02:32:34;21.67;;;19.52;;
58101;SDS011;52034;51.926;6.320;2023-05-07T02:33:34;21.70;;;19.60;;
58101;SDS011;52034;51.926;6.320;2023-05-07T02:34:36;21.52;;;19.52;;
58101;SDS011;52034;51.926;6.320;2023-05-07T02:35:37;21.35;;;19.35;;
58101;SDS011;52034;51.926;6.320;2023-05-07T02:36:38;24.83;;;22.07;;
58101;SDS011;52034;51.926;6.320;2023-05-07T02:37:43;22.05;;;20.05;;
58101;SDS011;52034;51.926;6.320;2023-05-07T02:38:43;21.43;;;19.43;;
58101;SDS011;52034;51.926;6.320;2023-05-07T02:39:44;23.07;;;20.97;;
58101;SDS011;52034;51.926;6.320;2023-05-07T02:40:44;23.03;;;20.63;;
58101;SDS011;52034;51.926;6.320;2023-05-07T02:41:44;23.73;;;20.00;;
58101;SDS011;52034;51.926;6.320;2023-05-07T02:42:45;21.40;;;19.40;;
58101;SDS011;52034;51.926;6.320;2023-05-07T02:43:45;22.27;;;20.07;;
58101;SDS011;52034;51.926;6.320;2023-05-07T02:44:46;21.90;;;19.60;;
58101;SDS011;52034;51.926;6.320;2023-05-07T02:45:46;22.17;;;20.00;;
58101;SDS011;52034;51.926;6.320;2023-05-07T02:46:47;20.83;;;18.75;;
58101;SDS011;52034;51.926;6.320;2023-05-07T02:47:48;23.03;;;20.07;;
58101;SDS011;52034;51.926;6.320;2023-05-07T02:48:48;21.40;;;19.27;;
58101;SDS011;52034;51.926;6.320;2023-05-07T02:49:48;21.40;;;19.40;;
58101;SDS011;52034;51.926;6.320;2023-05-07T02:50:49;23.47;;;21.13;;
58101;SDS011;52034;51.926;6.320;2023-05-07T02:51:49;21.43;;;19.40;;
58101;SDS011;52034;51.926;6.320;2023-05-07T02:52:54;24.25;;;21.83;;
58101;SDS011;52034;51.926;6.320;2023-05-07T02:53:55;21.33;;;19.37;;
58101;SDS011;52034;51.926;6.320;2023-05-07T02:54:56;21.70;;;19.63;;
58101;SDS011;52034;51.926;6.320;2023-05-07T02:55:56;20.40;;;18.57;;
58101;SDS011;52034;51.926;6.320;2023-05-07T02:56:57;22.63;;;20.23;;
58101;SDS011;52034;51.926;6.320;2023-05-07T02:57:58;23.13;;;20.93;;
58101;SDS011;52034;51.926;6.320;2023-05-07T02:58:59;22.05;;;19.85;;
58101;SDS011;52034;51.926;6.320;2023-05-07T03:00:12;22.85;;;20.70;;
58101;SDS011;52034;51.926;6.320;2023-05-07T03:01:17;20.33;;;18.23;;
58101;SDS011;52034;51.926;6.320;2023-05-07T03:02:27;21.17;;;19.17;;
58101;SDS011;52034;51.926;6.320;2023-05-07T03:03:27;21.30;;;19.07;;
58101;SDS011;52034;51.926;6.320;2023-05-07T03:04:28;24.03;;;21.67;;
58101;SDS011;52034;51.926;6.320;2023-05-07T03:05:28;20.80;;;18.63;;
58101;SDS011;52034;51.926;6.320;2023-05-07T03:06:28;20.73;;;18.83;;
58101;SDS011;52034;51.926;6.320;2023-05-07T03:07:29;21.57;;;19.07;;
58101;SDS011;52034;51.926;6.320;2023-05-07T03:08:29;21.67;;;19.43;;
58101;SDS011;52034;51.926;6.320;2023-05-07T03:09:30;22.03;;;20.00;;
58101;SDS011;52034;51.926;6.320;2023-05-07T03:10:30;21.07;;;19.10;;
58101;SDS011;52034;51.926;6.320;2023-05-07T03:11:31;22.90;;;20.80;;
58101;SDS011;52034;51.926;6.320;2023-05-07T03:12:31;22.10;;;20.00;;
58101;SDS011;52034;51.926;6.320;2023-05-07T03:13:32;20.37;;;18.43;;
58101;SDS011;52034;51.926;6.320;2023-05-07T03:14:32;20.60;;;18.50;;
58101;SDS011;52034;51.926;6.320;2023-05-07T03:15:32;22.50;;;20.30;;
58101;SDS011;52034;51.926;6.320;2023-05-07T03:16:33;21.10;;;18.97;;
58101;SDS011;52034;51.926;6.320;2023-05-07T03:17:33;21.70;;;19.70;;
58101;SDS011;52034;51.926;6.320;2023-05-07T03:18:33;20.90;;;18.87;;
58101;SDS011;52034;51.926;6.320;2023-05-07T03:19:34;22.33;;;20.13;;
58101;SDS011;52034;51.926;6.320;2023-05-07T03:20:34;21.33;;;19.17;;
58101;SDS011;52034;51.926;6.320;2023-05-07T03:21:36;20.65;;;18.67;;
58101;SDS011;52034;51.926;6.320;2023-05-07T03:22:36;20.67;;;18.67;;
58101;SDS011;52034;51.926;6.320;2023-05-07T03:23:37;21.47;;;19.20;;
58101;SDS011;52034;51.926;6.320;2023-05-07T03:24:37;20.90;;;18.80;;
58101;SDS011;52034;51.926;6.320;2023-05-07T03:25:37;21.27;;;19.17;;
58101;SDS011;52034;51.926;6.320;2023-05-07T03:26:38;19.30;;;17.47;;
58101;SDS011;52034;51.926;6.320;2023-05-07T03:27:38;21.30;;;18.27;;
58101;SDS011;52034;51.926;6.320;2023-05-07T03:28:39;19.23;;;17.27;;
58101;SDS011;52034;51.926;6.320;2023-05-07T03:29:43;19.25;;;17.35;;
58101;SDS011;52034;51.926;6.320;2023-05-07T03:30:44;19.33;;;17.63;;
58101;SDS011;52034;51.926;6.320;2023-05-07T03:31:44;20.10;;;18.07;;
58101;SDS011;52034;51.926;6.320;2023-05-07T03:32:45;18.80;;;16.97;;
58101;SDS011;52034;51.926;6.320;2023-05-07T03:33:52;19.42;;;17.73;;
58101;SDS011;52034;51.926;6.320;2023-05-07T03:34:55;20.27;;;18.27;;
58101;SDS011;52034;51.926;6.320;2023-05-07T03:35:56;19.38;;;17.42;;
58101;SDS011;52034;51.926;6.320;2023-05-07T03:36:58;19.98;;;18.02;;
58101;SDS011;52034;51.926;6.320;2023-05-07T03:37:59;18.80;;;17.00;;
58101;SDS011;52034;51.926;6.320;2023-05-07T03:39:02;19.33;;;17.42;;
58101;SDS011;52034;51.926;6.320;2023-05-07T03:40:10;19.88;;;17.88;;
58101;SDS011;52034;51.926;6.320;2023-05-07T03:41:17;20.00;;;17.92;;
58101;SDS011;52034;51.926;6.320;2023-05-07T03:43:22;21.63;;;19.38;;
58101;SDS011;52034;51.926;6.320;2023-05-07T03:44:30;20.05;;;18.17;;
58101;SDS011;52034;51.926;6.320;2023-05-07T03:45:33;18.95;;;17.05;;
58101;SDS011;52034;51.926;6.320;2023-05-07T03:46:44;20.52;;;18.35;;
58101;SDS011;52034;51.926;6.320;2023-05-07T03:47:46;21.40;;;19.27;;
58101;SDS011;52034;51.926;6.320;2023-05-07T03:48:50;19.38;;;17.58;;
58101;SDS011;52034;51.926;6.320;2023-05-07T03:49:52;18.95;;;17.08;;
58101;SDS011;52034;51.926;6.320;2023-05-07T03:50:55;20.58;;;18.63;;
58101;SDS011;52034;51.926;6.320;2023-05-07T03:51:57;19.55;;;17.65;;
58101;SDS011;52034;51.926;6.320;2023-05-07T03:52:58;19.50;;;17.57;;
58101;SDS011;52034;51.926;6.320;2023-05-07T03:53:58;19.57;;;17.77;;
58101;SDS011;52034;51.926;6.320;2023-05-07T03:55:00;20.42;;;18.27;;
58101;SDS011;52034;51.926;6.320;2023-05-07T03:56:01;20.13;;;18.23;;
58101;SDS011;52034;51.926;6.320;2023-05-07T03:57:04;22.80;;;20.52;;
58101;SDS011;52034;51.926;6.320;2023-05-07T03:58:04;20.67;;;18.77;;
58101;SDS011;52034;51.926;6.320;2023-05-07T03:59:05;20.47;;;18.50;;
58101;SDS011;52034;51.926;6.320;2023-05-07T04:00:05;20.87;;;18.77;;
58101;SDS011;52034;51.926;6.320;2023-05-07T04:01:20;19.92;;;17.83;;
58101;SDS011;52034;51.926;6.320;2023-05-07T04:02:21;21.30;;;19.17;;
58101;SDS011;52034;51.926;6.320;2023-05-07T04:03:21;23.50;;;18.20;;
58101;SDS011;52034;51.926;6.320;2023-05-07T04:04:22;19.80;;;17.98;;
58101;SDS011;52034;51.926;6.320;2023-05-07T04:05:23;20.50;;;18.33;;
58101;SDS011;52034;51.926;6.320;2023-05-07T04:06:26;20.73;;;18.75;;
58101;SDS011;52034;51.926;6.320;2023-05-07T04:07:27;20.38;;;18.48;;
58101;SDS011;52034;51.926;6.320;2023-05-07T04:08:28;19.97;;;17.93;;
58101;SDS011;52034;51.926;6.320;2023-05-07T04:09:29;19.05;;;17.25;;
58101;SDS011;52034;51.926;6.320;2023-05-07T04:10:30;20.60;;;18.55;;
58101;SDS011;52034;51.926;6.320;2023-05-07T04:11:33;18.50;;;16.88;;
58101;SDS011;52034;51.926;6.320;2023-05-07T04:12:34;20.10;;;17.65;;
58101;SDS011;52034;51.926;6.320;2023-05-07T04:13:35;19.73;;;17.63;;
58101;SDS011;52034;51.926;6.320;2023-05-07T04:14:37;19.45;;;17.50;;
58101;SDS011;52034;51.926;6.320;2023-05-07T04:15:37;19.30;;;17.63;;
58101;SDS011;52034;51.926;6.320;2023-05-07T04:16:41;19.50;;;17.58;;
58101;SDS011;52034;51.926;6.320;2023-05-07T04:17:42;21.40;;;19.38;;
58101;SDS011;52034;51.926;6.320;2023-05-07T04:18:42;20.47;;;18.57;;
58101;SDS011;52034;51.926;6.320;2023-05-07T04:19:42;20.87;;;18.97;;
58101;SDS011;52034;51.926;6.320;2023-05-07T04:20:46;19.73;;;17.92;;
58101;SDS011;52034;51.926;6.320;2023-05-07T04:21:48;21.48;;;19.42;;
58101;SDS011;52034;51.926;6.320;2023-05-07T04:22:48;20.60;;;18.40;;
58101;SDS011;52034;51.926;6.320;2023-05-07T04:23:49;19.97;;;18.07;;
58101;SDS011;52034;51.926;6.320;2023-05-07T04:24:49;20.53;;;18.43;;
58101;SDS011;52034;51.926;6.320;2023-05-07T04:25:50;22.83;;;20.60;;
58101;SDS011;52034;51.926;6.320;2023-05-07T04:27:11;22.73;;;20.42;;
58101;SDS011;52034;51.926;6.320;2023-05-07T04:28:12;21.17;;;18.90;;
58101;SDS011;52034;51.926;6.320;2023-05-07T04:30:14;20.50;;;18.60;;
58101;SDS011;52034;51.926;6.320;2023-05-07T04:31:15;21.13;;;18.83;;
58101;SDS011;52034;51.926;6.320;2023-05-07T04:32:16;20.83;;;18.83;;
58101;SDS011;52034;51.926;6.320;2023-05-07T04:33:17;21.55;;;19.33;;
58101;SDS011;52034;51.926;6.320;2023-05-07T04:34:18;20.67;;;18.75;;
58101;SDS011;52034;51.926;6.320;2023-05-07T04:35:19;23.43;;;21.00;;
58101;SDS011;52034;51.926;6.320;2023-05-07T04:36:19;20.73;;;18.70;;
58101;SDS011;52034;51.926;6.320;2023-05-07T04:37:32;20.65;;;18.40;;
58101;SDS011;52034;51.926;6.320;2023-05-07T04:38:33;22.42;;;20.23;;
58101;SDS011;52034;51.926;6.320;2023-05-07T04:39:36;22.60;;;20.10;;
58101;SDS011;52034;51.926;6.320;2023-05-07T04:40:36;19.38;;;17.60;;
58101;SDS011;52034;51.926;6.320;2023-05-07T04:41:37;20.03;;;18.03;;
58101;SDS011;52034;51.926;6.320;2023-05-07T04:42:39;21.15;;;18.73;;
58101;SDS011;52034;51.926;6.320;2023-05-07T04:43:40;21.55;;;19.35;;
58101;SDS011;52034;51.926;6.320;2023-05-07T04:44:41;19.57;;;17.70;;
58101;SDS011;52034;51.926;6.320;2023-05-07T04:45:42;20.43;;;18.50;;
58101;SDS011;52034;51.926;6.320;2023-05-07T04:46:42;23.15;;;20.73;;
58101;SDS011;52034;51.926;6.320;2023-05-07T04:47:43;20.67;;;18.58;;
58101;SDS011;52034;51.926;6.320;2023-05-07T04:48:44;20.80;;;18.93;;
58101;SDS011;52034;51.926;6.320;2023-05-07T04:49:45;19.83;;;17.92;;
58101;SDS011;52034;51.926;6.320;2023-05-07T04:50:49;19.42;;;17.58;;
58101;SDS011;52034;51.926;6.320;2023-05-07T04:51:51;20.00;;;18.10;;
58101;SDS011;52034;51.926;6.320;2023-05-07T04:52:54;21.35;;;19.25;;
58101;SDS011;52034;51.926;6.320;2023-05-07T04:53:55;22.13;;;19.90;;
58101;SDS011;52034;51.926;6.320;2023-05-07T04:54:55;21.93;;;19.67;;
58101;SDS011;52034;51.926;6.320;2023-05-07T04:55:56;20.38;;;18.38;;
58101;SDS011;52034;51.926;6.320;2023-05-07T04:56:58;20.42;;;18.38;;
58101;SDS011;52034;51.926;6.320;2023-05-07T04:57:59;20.40;;;18.43;;
58101;SDS011;52034;51.926;6.320;2023-05-07T04:59:01;20.48;;;18.48;;
58101;SDS011;52034;51.926;6.320;2023-05-07T05:00:03;23.10;;;20.63;;
58101;SDS011;52034;51.926;6.320;2023-05-07T05:01:06;20.27;;;18.38;;
58101;SDS011;52034;51.926;6.320;2023-05-07T05:02:06;21.30;;;19.20;;
58101;SDS011;52034;51.926;6.320;2023-05-07T05:03:07;20.58;;;18.58;;
58101;SDS011;52034;51.926;6.320;2023-05-07T05:04:08;20.43;;;18.57;;
58101;SDS011;52034;51.926;6.320;2023-05-07T05:05:08;21.07;;;19.00;;
58101;SDS011;52034;51.926;6.320;2023-05-07T05:06:10;20.00;;;17.87;;
58101;SDS011;52034;51.926;6.320;2023-05-07T05:07:11;21.45;;;19.35;;
58101;SDS011;52034;51.926;6.320;2023-05-07T05:08:12;21.47;;;19.23;;
58101;SDS011;52034;51.926;6.320;2023-05-07T05:09:15;22.17;;;19.77;;
58101;SDS011;52034;51.926;6.320;2023-05-07T05:10:16;19.50;;;17.60;;
58101;SDS011;52034;51.926;6.320;2023-05-07T05:11:17;25.10;;;19.85;;
58101;SDS011;52034;51.926;6.320;2023-05-07T05:12:18;19.70;;;17.90;;
58101;SDS011;52034;51.926;6.320;2023-05-07T05:13:18;21.30;;;19.30;;
58101;SDS011;52034;51.926;6.320;2023-05-07T05:14:19;23.97;;;20.00;;
58101;SDS011;52034;51.926;6.320;2023-05-07T05:15:19;21.33;;;19.17;;
58101;SDS011;52034;51.926;6.320;2023-05-07T05:16:19;22.90;;;20.50;;
58101;SDS011;52034;51.926;6.320;2023-05-07T05:17:20;21.73;;;19.63;;
58101;SDS011;52034;51.926;6.320;2023-05-07T05:18:20;20.40;;;18.23;;
58101;SDS011;52034;51.926;6.320;2023-05-07T05:19:21;20.43;;;18.27;;
58101;SDS011;52034;51.926;6.320;2023-05-07T05:20:21;20.80;;;18.00;;
58101;SDS011;52034;51.926;6.320;2023-05-07T05:21:22;19.40;;;17.70;;
58101;SDS011;52034;51.926;6.320;2023-05-07T05:22:26;21.05;;;18.95;;
58101;SDS011;52034;51.926;6.320;2023-05-07T05:23:30;19.58;;;17.60;;
58101;SDS011;52034;51.926;6.320;2023-05-07T05:24:31;21.80;;;19.70;;
58101;SDS011;52034;51.926;6.320;2023-05-07T05:25:31;19.35;;;17.42;;
58101;SDS011;52034;51.926;6.320;2023-05-07T05:26:33;20.73;;;18.75;;
58101;SDS011;52034;51.926;6.320;2023-05-07T05:27:34;20.80;;;18.80;;
58101;SDS011;52034;51.926;6.320;2023-05-07T05:29:36;21.00;;;18.95;;
58101;SDS011;52034;51.926;6.320;2023-05-07T05:30:37;20.67;;;18.57;;
58101;SDS011;52034;51.926;6.320;2023-05-07T05:31:37;22.27;;;20.13;;
58101;SDS011;52034;51.926;6.320;2023-05-07T05:32:37;19.77;;;17.87;;
58101;SDS011;52034;51.926;6.320;2023-05-07T05:33:39;22.70;;;20.33;;
58101;SDS011;52034;51.926;6.320;2023-05-07T05:34:40;20.58;;;18.67;;
58101;SDS011;52034;51.926;6.320;2023-05-07T05:35:41;22.17;;;20.00;;
58101;SDS011;52034;51.926;6.320;2023-05-07T05:36:45;20.00;;;18.13;;
58101;SDS011;52034;51.926;6.320;2023-05-07T05:38:48;20.10;;;18.20;;
58101;SDS011;52034;51.926;6.320;2023-05-07T05:39:48;19.97;;;18.00;;
58101;SDS011;52034;51.926;6.320;2023-05-07T05:40:49;22.75;;;20.55;;
58101;SDS011;52034;51.926;6.320;2023-05-07T05:41:49;21.53;;;19.33;;
58101;SDS011;52034;51.926;6.320;2023-05-07T05:42:50;22.40;;;20.23;;
58101;SDS011;52034;51.926;6.320;2023-05-07T05:43:51;21.23;;;19.10;;
58101;SDS011;52034;51.926;6.320;2023-05-07T05:44:52;24.42;;;19.45;;
58101;SDS011;52034;51.926;6.320;2023-05-07T05:45:53;21.13;;;19.03;;
58101;SDS011;52034;51.926;6.320;2023-05-07T05:46:55;21.42;;;19.33;;
58101;SDS011;52034;51.926;6.320;2023-05-07T05:47:57;20.13;;;18.08;;
58101;SDS011;52034;51.926;6.320;2023-05-07T05:48:58;21.17;;;18.90;;
58101;SDS011;52034;51.926;6.320;2023-05-07T05:49:58;25.13;;;21.17;;
58101;SDS011;52034;51.926;6.320;2023-05-07T05:50:59;19.90;;;17.88;;
58101;SDS011;52034;51.926;6.320;2023-05-07T05:52:00;22.23;;;19.83;;
58101;SDS011;52034;51.926;6.320;2023-05-07T05:53:01;22.95;;;20.75;;
58101;SDS011;52034;51.926;6.320;2023-05-07T05:54:02;21.50;;;19.38;;
58101;SDS011;52034;51.926;6.320;2023-05-07T05:55:03;20.53;;;18.57;;
58101;SDS011;52034;51.926;6.320;2023-05-07T05:56:03;21.07;;;19.13;;
58101;SDS011;52034;51.926;6.320;2023-05-07T05:57:06;21.23;;;19.08;;
58101;SDS011;52034;51.926;6.320;2023-05-07T05:58:07;20.20;;;18.20;;
58101;SDS011;52034;51.926;6.320;2023-05-07T05:59:11;19.83;;;17.75;;
58101;SDS011;52034;51.926;6.320;2023-05-07T06:00:12;20.75;;;18.75;;
58101;SDS011;52034;51.926;6.320;2023-05-07T06:01:21;20.52;;;18.40;;
58101;SDS011;52034;51.926;6.320;2023-05-07T06:02:23;21.13;;;19.08;;
58101;SDS011;52034;51.926;6.320;2023-05-07T06:03:24;23.07;;;19.03;;
58101;SDS011;52034;51.926;6.320;2023-05-07T06:04:25;20.40;;;18.40;;
58101;SDS011;52034;51.926;6.320;2023-05-07T06:05:26;21.27;;;19.17;;
58101;SDS011;52034;51.926;6.320;2023-05-07T06:06:28;20.15;;;18.15;;